Time;durP1;ratioP1;P1;durP2;ratioP2;P2;SDS_P1;SDS_P2;PMS_P1;PMS_P2;Temp;Humidity;BMP_temperature;BMP_pressure;BME280_temperature;BME280_humidity;BME280_pressure;Samples;Min_cycle;Max_cycle;Signal;HPM_P1;HPM_P2
2023/05/05 00:01:51;;;;;;;8.60;2.70;;;;;;;5.35;86.22;100877.67;105543;1258;67634;-69
2023/05/05 00:04:40;;;;;;;10.70;3.10;;;;;;;5.37;86.53;100878.64;105557;1254;71358;-69
2023/05/05 00:07:28;;;;;;;9.20;2.90;;;;;;;5.37;86.78;100878.45;105452;1256;59350;-68
2023/05/05 00:10:16;;;;;;;8.20;2.60;;;;;;;5.40;87.01;100879.39;105460;1255;59297;-68
2023/05/05 00:13:05;;;;;;;9.70;2.70;;;;;;;5.39;87.50;100877.65;105567;1254;71506;-69
2023/05/05 00:15:54;;;;;;;8.10;3.10;;;;;;;5.40;87.49;100890.98;105612;1255;69111;-70
2023/05/05 00:18:42;;;;;;;7.40;2.60;;;;;;;5.40;87.18;100883.95;105564;1255;71498;-69
2023/05/05 00:21:30;;;;;;;10.20;2.90;;;;;;;5.40;87.62;100885.20;105563;1256;59399;-69
2023/05/05 00:24:18;;;;;;;10.00;3.10;;;;;;;5.40;87.43;100891.88;105754;1262;59330;-70
2023/05/05 00:27:07;;;;;;;7.70;2.70;;;;;;;5.41;86.57;100897.46;105491;1256;70066;-69
2023/05/05 00:29:55;;;;;;;9.40;2.90;;;;;;;5.40;85.72;100897.69;105631;1258;67580;-69
2023/05/05 00:32:46;;;;;;;6.80;2.60;;;;;;;5.40;83.99;100898.58;105424;1257;70680;-69
2023/05/05 00:35:34;;;;;;;9.10;2.80;;;;;;;5.40;82.94;100900.86;105458;1261;59267;-69
2023/05/05 00:38:23;;;;;;;7.70;2.90;;;;;;;5.39;81.62;100896.12;105838;1254;60129;-69
2023/05/05 00:41:11;;;;;;;7.70;2.60;;;;;;;5.38;79.99;100897.60;105631;1264;71541;-69
2023/05/05 00:43:59;;;;;;;11.50;3.40;;;;;;;5.34;79.06;100903.41;105681;1258;68127;-67
2023/05/05 00:46:47;;;;;;;7.10;2.90;;;;;;;5.31;77.78;100909.49;105721;1255;72708;-70
2023/05/05 00:49:37;;;;;;;9.20;2.80;;;;;;;5.30;76.73;100907.10;105460;1256;59402;-68
2023/05/05 00:52:25;;;;;;;7.30;2.60;;;;;;;5.28;76.25;100912.61;105796;1258;60730;-69
2023/05/05 00:55:15;;;;;;;10.10;2.60;;;;;;;5.29;75.78;100910.81;105442;1256;71873;-67
2023/05/05 00:58:03;;;;;;;7.90;2.70;;;;;;;5.26;75.27;100906.91;105696;1256;68072;-68
2023/05/05 01:00:51;;;;;;;8.20;2.50;;;;;;;5.24;74.78;100905.43;105598;1261;72441;-69
2023/05/05 01:03:40;;;;;;;8.60;2.70;;;;;;;5.22;74.74;100906.19;105870;1256;59225;-70
2023/05/05 01:07:18;;;;;;;7.00;2.20;;;;;;;5.22;74.95;100911.66;105920;1256;60736;-70
2023/05/05 01:11:02;;;;;;;8.30;2.60;;;;;;;5.17;75.98;100909.39;105721;1260;72329;-69
2023/05/05 01:14:13;;;;;;;7.70;2.60;;;;;;;5.12;77.62;100905.91;105897;1264;68446;-70
2023/05/05 01:17:09;;;;;;;7.80;2.60;;;;;;;5.07;78.13;100907.31;105804;1259;74212;-70
2023/05/05 01:20:44;;;;;;;6.70;1.90;;;;;;;5.08;78.40;100916.24;106302;1264;59338;-70
2023/05/05 01:24:10;;;;;;;9.80;3.00;;;;;;;5.08;78.14;100909.39;105876;1267;59997;-69
2023/05/05 01:27:43;;;;;;;7.20;2.70;;;;;;;5.08;77.22;100914.48;105319;1268;71462;-68
2023/05/05 01:30:43;;;;;;;8.10;2.50;;;;;;;5.07;76.33;100914.55;105240;1264;67883;-69
2023/05/05 01:33:48;;;;;;;6.90;2.30;;;;;;;5.07;75.72;100912.77;105044;1268;71181;-68
2023/05/05 01:36:41;;;;;;;7.60;2.10;;;;;;;5.08;75.13;100910.81;105498;1268;59455;-69
2023/05/05 01:39:34;;;;;;;9.40;2.50;;;;;;;5.10;74.79;100914.62;105000;1266;59721;-68
2023/05/05 01:42:26;;;;;;;6.80;2.70;;;;;;;5.14;74.58;100920.61;104942;1267;71911;-68
2023/05/05 01:45:20;;;;;;;8.00;2.50;;;;;;;5.13;74.51;100916.08;105268;1273;68680;-70
2023/05/05 01:48:11;;;;;;;8.00;2.20;;;;;;;5.10;73.98;100910.20;104839;1273;72777;-70
2023/05/05 01:51:02;;;;;;;9.90;2.40;;;;;;;5.03;73.96;100903.26;104535;1276;59145;-69
2023/05/05 01:54:02;;;;;;;11.40;3.00;;;;;;;5.04;73.86;100907.48;103716;1270;1002892;-69
2023/05/05 01:56:53;;;;;;;7.80;2.50;;;;;;;5.04;73.89;100910.80;104729;1273;72636;-69
2023/05/05 01:59:41;;;;;;;6.70;2.20;;;;;;;5.03;73.87;100906.99;104601;1276;68688;-68
2023/05/05 02:02:31;;;;;;;7.20;2.00;;;;;;;5.03;73.91;100908.05;105109;1265;72732;-69
2023/05/05 02:05:22;;;;;;;7.60;2.30;;;;;;;5.03;74.02;100906.46;104423;1261;1002552;-67
2023/05/05 02:08:11;;;;;;;9.70;2.40;;;;;;;5.01;73.97;100907.94;105065;1261;59406;-68
2023/05/05 02:11:00;;;;;;;8.10;2.30;;;;;;;5.00;74.06;100906.91;105192;1263;70901;-68
2023/05/05 02:13:49;;;;;;;6.70;2.20;;;;;;;5.02;73.76;100907.56;105335;1256;67856;-68
2023/05/05 02:16:41;;;;;;;7.00;2.10;;;;;;;4.99;73.67;100905.02;105278;1256;72564;-71
2023/05/05 02:19:37;;;;;;;9.20;2.30;;;;;;;4.98;73.50;100907.35;105429;1257;59180;-69
2023/05/05 02:22:26;;;;;;;10.50;2.80;;;;;;;4.95;73.29;100903.44;106027;1258;59769;-70
2023/05/05 02:25:16;;;;;;;9.00;2.30;;;;;;;4.94;73.22;100905.93;105717;1253;70955;-68
2023/05/05 02:28:14;;;;;;;7.40;2.10;;;;;;;4.91;72.82;100909.92;105647;1253;65404;-69
2023/05/05 02:31:05;;;;;;;6.90;1.80;;;;;;;4.90;73.02;100908.36;105976;1257;72812;-69
2023/05/05 02:33:57;;;;;;;6.50;2.10;;;;;;;4.89;72.72;100906.12;105503;1260;59114;-69
2023/05/05 02:36:50;;;;;;;6.30;2.10;;;;;;;4.90;72.45;100907.33;104849;1261;1003178;-69
2023/05/05 02:40:20;;;;;;;7.00;2.50;;;;;;;4.93;72.79;100908.08;102803;1293;601083;-72
2023/05/05 02:43:10;;;;;;;7.50;2.10;;;;;;;4.92;72.73;100911.48;105361;1268;59210;-68
2023/05/05 02:45:57;;;;;;;6.40;2.10;;;;;;;4.92;72.60;100909.52;105375;1263;59456;-70
2023/05/05 02:48:45;;;;;;;9.10;2.60;;;;;;;4.90;72.44;100913.16;105692;1258;70620;-68
2023/05/05 02:51:32;;;;;;;7.20;2.10;;;;;;;4.86;72.32;100910.46;105191;1262;67757;-69
2023/05/05 02:54:22;;;;;;;6.50;1.90;;;;;;;4.79;71.74;100908.29;105444;1260;187768;-70
2023/05/05 02:57:15;;;;;;;7.40;2.30;;;;;;;4.75;71.78;100909.86;105895;1257;59163;-72
2023/05/05 03:00:18;;;;;;;9.00;2.20;;;;;;;4.73;71.87;100914.67;105683;1256;59385;-71
2023/05/05 03:04:05;;;;;;;7.90;2.40;;;;;;;4.71;72.10;100921.60;105905;1258;69565;-72
2023/05/05 03:07:07;;;;;;;7.30;2.40;;;;;;;4.64;70.95;100917.00;106300;1254;69558;-71
2023/05/05 03:10:08;;;;;;;8.00;2.00;;;;;;;4.57;70.34;100915.48;106376;1251;71765;-71
2023/05/05 03:13:05;;;;;;;6.60;1.90;;;;;;;4.54;70.56;100923.52;106084;1256;59331;-70
2023/05/05 03:16:03;;;;;;;6.70;2.10;;;;;;;4.49;70.34;100927.21;106355;1251;59215;-72
2023/05/05 03:19:01;;;;;;;8.60;2.40;;;;;;;4.45;70.06;100923.17;106165;1257;71440;-71
2023/05/05 03:21:55;;;;;;;5.60;1.90;;;;;;;4.42;69.36;100922.38;106082;1254;67922;-70
2023/05/05 03:24:50;;;;;;;6.30;1.90;;;;;;;4.43;69.35;100929.20;105753;1253;71445;-68
2023/05/05 03:27:38;;;;;;;7.30;2.00;;;;;;;4.44;69.31;100931.83;105794;1262;59237;-70
2023/05/05 03:30:25;;;;;;;8.50;1.90;;;;;;;4.43;69.28;100929.56;106310;1265;59320;-71
2023/05/05 03:33:12;;;;;;;6.70;2.10;;;;;;;4.42;69.00;100938.18;105853;1254;71431;-72
2023/05/05 03:36:07;;;;;;;7.10;2.00;;;;;;;4.42;68.62;100938.20;106311;1256;68874;-71
2023/05/05 03:38:59;;;;;;;6.80;1.80;;;;;;;4.44;68.75;100939.02;106240;1257;71937;-72
2023/05/05 03:41:52;;;;;;;6.90;2.00;;;;;;;4.46;68.00;100938.40;105779;1253;59475;-68
2023/05/05 03:44:40;;;;;;;8.00;2.10;;;;;;;4.51;67.49;100939.29;106044;1255;61801;-72
2023/05/05 03:47:28;;;;;;;6.10;1.90;;;;;;;4.53;66.94;100937.42;105626;1267;69655;-73
2023/05/05 03:50:17;;;;;;;7.20;1.80;;;;;;;4.57;66.45;100943.77;105833;1260;66802;-74
2023/05/05 03:53:04;;;;;;;6.60;2.10;;;;;;;4.58;65.51;100945.51;105706;1263;72863;-73
2023/05/05 03:55:51;;;;;;;6.40;1.90;;;;;;;4.58;64.47;100942.52;105803;1262;59347;-74
2023/05/05 03:58:38;;;;;;;7.90;1.80;;;;;;;4.59;64.09;100946.36;105318;1263;59347;-73
2023/05/05 04:01:28;;;;;;;6.70;2.00;;;;;;;4.60;65.00;100948.59;105792;1259;70346;-70
2023/05/05 04:04:16;;;;;;;7.30;2.10;;;;;;;4.62;65.72;100954.85;105311;1254;1003248;-73
2023/05/05 04:07:03;;;;;;;6.40;1.80;;;;;;;4.61;67.05;100954.54;105883;1254;71120;-71
2023/05/05 04:09:50;;;;;;;6.40;2.20;;;;;;;4.58;68.21;100958.88;105966;1254;59433;-71
2023/05/05 04:12:39;;;;;;;8.80;2.20;;;;;;;4.56;68.94;100962.09;107140;1254;59116;-70
2023/05/05 04:15:26;;;;;;;7.60;2.00;;;;;;;4.57;69.47;100961.17;106851;1254;69937;-70
2023/05/05 04:18:14;;;;;;;6.30;2.00;;;;;;;4.60;69.62;100961.23;106562;1258;67188;-70
2023/05/05 04:21:01;;;;;;;7.50;1.90;;;;;;;4.62;68.80;100955.75;105925;1260;74460;-72
2023/05/05 04:23:48;;;;;;;8.30;1.80;;;;;;;4.67;68.51;100963.25;106028;1255;59247;-73
2023/05/05 04:26:36;;;;;;;6.80;2.10;;;;;;;4.73;68.25;100968.31;105790;1259;59322;-71
2023/05/05 04:29:22;;;;;;;10.90;2.20;;;;;;;4.78;67.71;100969.33;106178;1257;71058;-70
2023/05/05 04:32:09;;;;;;;8.70;2.00;;;;;;;4.84;66.80;100971.08;105846;1260;67952;-69
2023/05/05 04:34:56;;;;;;;5.90;1.80;;;;;;;4.90;66.30;100978.38;106109;1256;72341;-71
2023/05/05 04:37:44;;;;;;;7.10;1.90;;;;;;;4.95;65.87;100977.27;106254;1254;59216;-69
2023/05/05 04:40:31;;;;;;;6.40;1.90;;;;;;;4.98;65.65;100983.17;105906;1254;60345;-69
2023/05/05 04:43:19;;;;;;;5.90;1.90;;;;;;;5.04;65.88;100989.06;106161;1254;71336;-69
2023/05/05 04:46:06;;;;;;;9.10;2.10;;;;;;;5.09;65.58;100989.91;105913;1260;66430;-72
2023/05/05 04:48:54;;;;;;;7.10;1.90;;;;;;;5.18;65.62;100998.38;105924;1257;71332;-71
2023/05/05 04:51:41;;;;;;;8.30;2.00;;;;;;;5.28;64.76;100996.05;106291;1254;59226;-71
2023/05/05 04:54:28;;;;;;;5.90;1.70;;;;;;;5.36;64.49;100994.12;105853;1254;60737;-72
2023/05/05 04:57:15;;;;;;;7.90;1.80;;;;;;;5.46;64.24;100998.14;105993;1254;71522;-69
2023/05/05 05:00:04;;;;;;;7.40;2.80;;;;;;;5.59;64.28;101002.34;105702;1252;66506;-71
2023/05/05 05:02:52;;;;;;;6.50;2.00;;;;;;;5.69;63.82;101004.03;106036;1254;71438;-72
2023/05/05 05:05:39;;;;;;;6.70;2.00;;;;;;;5.86;62.70;101010.51;105733;1254;59453;-71
2023/05/05 05:08:27;;;;;;;7.30;2.40;;;;;;;5.91;61.81;101010.67;106209;1254;59208;-73
2023/05/05 05:11:14;;;;;;;7.50;2.00;;;;;;;5.99;61.63;101015.11;105210;1254;1003727;-70
2023/05/05 05:14:04;;;;;;;7.70;1.80;;;;;;;6.05;61.28;101016.61;105865;1254;67698;-70
2023/05/05 05:16:52;;;;;;;7.60;2.10;;;;;;;6.10;61.13;101024.11;106361;1253;71230;-70
2023/05/05 05:19:44;;;;;;;7.00;2.10;;;;;;;6.14;60.59;101022.19;105770;1256;59228;-69
2023/05/05 05:22:31;;;;;;;6.30;1.80;;;;;;;6.23;60.83;101015.64;105665;1261;61039;-70
2023/05/05 05:25:18;;;;;;;7.70;2.40;;;;;;;6.26;60.24;101020.27;106063;1259;71445;-69
2023/05/05 05:28:06;;;;;;;6.80;2.40;;;;;;;6.58;59.63;101021.13;105758;1260;66527;-70
2023/05/05 05:31:05;;;;;;;6.40;2.00;;;;;;;7.03;58.53;101023.63;105703;1254;71109;-70
2023/05/05 05:33:53;;;;;;;6.00;1.80;;;;;;;7.09;57.39;101021.76;105957;1253;59151;-71
2023/05/05 05:36:40;;;;;;;8.70;2.70;;;;;;;7.34;56.91;101027.46;105949;1257;60132;-70
2023/05/05 05:39:27;;;;;;;6.80;2.30;;;;;;;7.65;56.29;101028.20;105948;1260;69354;-69
2023/05/05 05:42:13;;;;;;;6.10;2.00;;;;;;;7.93;55.33;101025.58;106111;1255;68284;-70
2023/05/05 05:45:01;;;;;;;5.90;2.10;;;;;;;8.16;54.74;101025.08;105941;1261;74318;-72
2023/05/05 05:47:49;;;;;;;6.00;1.90;;;;;;;8.26;53.73;101023.86;105896;1260;59219;-71
2023/05/05 05:50:40;;;;;;;6.20;1.90;;;;;;;8.32;53.68;101025.33;106033;1256;59368;-70
2023/05/05 05:53:27;;;;;;;6.70;2.00;;;;;;;8.49;53.13;101026.20;105548;1258;69264;-70
2023/05/05 05:56:14;;;;;;;6.70;2.70;;;;;;;8.80;52.75;101025.58;105904;1258;69268;-72
2023/05/05 05:59:06;;;;;;;7.60;2.00;;;;;;;8.92;52.47;101024.94;105902;1263;74264;-72
2023/05/05 06:02:21;;;;;;;5.60;1.60;;;;;;;8.92;51.44;101023.19;105626;1262;59338;-72
2023/05/05 06:05:14;;;;;;;8.30;2.50;;;;;;;9.09;51.42;101024.66;105623;1256;60378;-72
2023/05/05 06:08:17;;;;;;;6.90;2.10;;;;;;;10.54;48.23;101018.10;105732;1257;72482;-71
2023/05/05 06:11:07;;;;;;;6.80;2.40;;;;;;;11.77;45.22;101019.65;105583;1262;66527;-71
2023/05/05 06:13:54;;;;;;;6.90;1.80;;;;;;;12.32;43.87;101018.20;106040;1256;72448;-73
2023/05/05 06:16:43;;;;;;;5.90;2.10;;;;;;;12.90;41.93;101024.99;105823;1254;59323;-72
2023/05/05 06:19:33;;;;;;;7.10;1.90;;;;;;;12.78;41.77;101025.69;105659;1257;59341;-70
2023/05/05 06:22:22;;;;;;;8.20;2.20;;;;;;;12.80;42.41;101028.21;105864;1256;71689;-70
2023/05/05 06:25:10;;;;;;;6.90;2.20;;;;;;;12.77;41.98;101028.59;106112;1254;67764;-71
2023/05/05 06:27:57;;;;;;;5.80;1.70;;;;;;;12.40;42.28;101032.73;105948;1258;72905;-70
2023/05/05 06:30:51;;;;;;;6.70;1.90;;;;;;;11.93;42.85;101039.31;106456;1254;59326;-74
2023/05/05 06:33:37;;;;;;;6.50;2.10;;;;;;;11.94;43.21;101038.95;106104;1260;59302;-71
2023/05/05 06:36:31;;;;;;;6.40;1.80;;;;;;;11.96;43.02;101038.45;105613;1254;73060;-71
2023/05/05 06:39:24;;;;;;;7.60;2.10;;;;;;;11.82;43.07;101040.08;106471;1257;67897;-71
2023/05/05 06:42:10;;;;;;;8.40;2.00;;;;;;;11.43;43.51;101044.09;106175;1253;71705;-75
2023/05/05 06:44:59;;;;;;;10.00;2.30;;;;;;;11.58;44.22;101047.55;106070;1254;59199;-74
2023/05/05 06:47:46;;;;;;;6.70;2.00;;;;;;;11.99;43.71;101047.54;106006;1254;60032;-69
2023/05/05 06:50:34;;;;;;;5.90;1.90;;;;;;;12.60;43.58;101047.20;106490;1254;71213;-71
2023/05/05 06:53:21;;;;;;;7.20;2.00;;;;;;;13.42;41.02;101041.83;106236;1252;68831;-74
2023/05/05 06:56:08;;;;;;;7.60;2.00;;;;;;;13.45;40.28;101043.81;106636;1254;73980;-71
2023/05/05 06:58:54;;;;;;;7.10;1.90;;;;;;;14.24;39.36;101042.30;106696;1257;59233;-72
2023/05/05 07:01:45;;;;;;;7.30;1.90;;;;;;;14.40;38.12;101042.09;106597;1256;59173;-74
2023/05/05 07:04:32;;;;;;;7.10;2.10;;;;;;;15.27;36.86;101037.73;109453;1253;71656;-71
2023/05/05 07:07:18;;;;;;;6.00;1.80;;;;;;;16.01;35.85;101040.70;109689;1251;67146;-71
2023/05/05 07:10:08;;;;;;;9.60;2.20;;;;;;;16.08;34.83;101040.67;109585;1251;73563;-72
2023/05/05 07:12:55;;;;;;;8.30;1.80;;;;;;;16.35;33.91;101040.50;109646;1251;57696;-72
2023/05/05 07:15:45;;;;;;;6.60;1.80;;;;;;;16.04;34.25;101041.52;109354;1251;57800;-75
2023/05/05 07:18:31;;;;;;;8.80;2.20;;;;;;;16.62;33.57;101039.45;109443;1251;70063;-73
2023/05/05 07:21:18;;;;;;;6.50;2.10;;;;;;;17.20;32.82;101039.73;109440;1251;66678;-76
2023/05/05 07:24:06;;;;;;;8.10;1.90;;;;;;;18.25;31.82;101041.14;109655;1251;72519;-71
2023/05/05 07:26:53;;;;;;;6.60;1.80;;;;;;;18.89;30.13;101030.73;109227;1253;57802;-74
2023/05/05 07:29:39;;;;;;;6.40;1.70;;;;;;;18.55;30.73;101039.23;109122;1254;60440;-74
2023/05/05 07:32:26;;;;;;;6.80;1.90;;;;;;;18.56;31.26;101039.50;109238;1254;73336;-75
2023/05/05 07:35:13;;;;;;;7.20;2.20;;;;;;;18.58;31.55;101045.02;109228;1257;67906;-71
2023/05/05 07:37:59;;;;;;;7.60;2.10;;;;;;;17.95;32.27;101053.09;109089;1256;71233;-74
2023/05/05 07:40:46;;;;;;;8.10;3.20;;;;;;;17.99;32.25;101050.77;109115;1256;57526;-72
2023/05/05 07:43:37;;;;;;;9.40;2.70;;;;;;;18.90;31.25;101045.55;109164;1256;58865;-74
2023/05/05 07:46:27;;;;;;;6.60;1.90;;;;;;;19.73;29.78;101044.46;109200;1256;71126;-72
2023/05/05 07:49:15;;;;;;;7.90;1.90;;;;;;;19.53;29.46;101047.64;109198;1256;68104;-70
2023/05/05 07:52:01;;;;;;;6.20;1.70;;;;;;;19.26;29.69;101046.00;109033;1256;74132;-70
2023/05/05 07:54:52;;;;;;;8.30;2.00;;;;;;;18.65;30.04;101049.19;108960;1257;57114;-72
2023/05/05 07:57:39;;;;;;;7.50;1.80;;;;;;;19.16;29.80;101052.77;109303;1253;58728;-74
2023/05/05 08:00:25;;;;;;;6.40;1.80;;;;;;;19.53;29.30;101057.17;109110;1253;71912;-72
2023/05/05 08:03:12;;;;;;;5.70;1.70;;;;;;;19.63;29.09;101060.20;109332;1254;67692;-71
2023/05/05 08:06:14;;;;;;;8.00;1.70;;;;;;;20.59;28.30;101060.27;109280;1253;73562;-72
2023/05/05 08:09:01;;;;;;;6.40;1.70;;;;;;;21.45;26.97;101058.44;109367;1254;56875;-70
2023/05/05 08:11:48;;;;;;;6.00;1.60;;;;;;;22.20;26.36;101065.61;109467;1253;58812;-69
2023/05/05 08:14:35;;;;;;;10.00;1.60;;;;;;;23.00;25.30;101061.71;109258;1253;70845;-68
2023/05/05 08:17:24;;;;;;;8.70;2.00;;;;;;;23.62;24.38;101064.35;109369;1253;66410;-70
2023/05/05 08:20:12;;;;;;;6.20;1.50;;;;;;;24.16;23.67;101059.86;109483;1253;73381;-72
2023/05/05 08:22:59;;;;;;;7.60;1.40;;;;;;;23.78;23.62;101062.80;109245;1257;58176;-73
2023/05/05 08:25:48;;;;;;;6.70;1.40;;;;;;;23.26;24.17;101069.21;109307;1253;61088;-69
2023/05/05 08:28:36;;;;;;;6.70;1.70;;;;;;;21.77;25.47;101071.39;109541;1251;71065;-73
2023/05/05 08:31:22;;;;;;;6.00;1.60;;;;;;;20.44;26.64;101070.30;109109;1255;67733;-69
2023/05/05 08:34:09;;;;;;;6.10;1.70;;;;;;;20.46;26.62;101069.92;109328;1254;71380;-72
2023/05/05 08:36:56;;;;;;;6.90;1.70;;;;;;;20.57;26.58;101065.72;109065;1255;57100;-70
2023/05/05 08:39:42;;;;;;;8.80;1.80;;;;;;;21.23;26.13;101068.92;109208;1256;60132;-76
2023/05/05 08:42:32;;;;;;;7.20;1.60;;;;;;;22.00;25.28;101065.70;109289;1254;72161;-71
2023/05/05 08:45:26;;;;;;;6.70;2.00;;;;;;;22.43;23.87;101063.09;109155;1254;66627;-69
2023/05/05 08:48:18;;;;;;;7.50;1.40;;;;;;;22.80;23.36;101066.17;109081;1254;72727;-73
2023/05/05 08:51:07;;;;;;;6.90;1.70;;;;;;;22.86;23.34;101063.66;109102;1254;58179;-69
2023/05/05 08:53:53;;;;;;;6.20;1.50;;;;;;;21.99;23.95;101069.41;109092;1255;60178;-70
2023/05/05 08:56:45;;;;;;;7.10;1.60;;;;;;;21.53;24.58;101063.00;109295;1254;71217;-69
2023/05/05 08:59:34;;;;;;;9.50;1.70;;;;;;;21.91;24.20;101062.71;109322;1254;67703;-71
2023/05/05 09:02:22;;;;;;;6.20;1.50;;;;;;;22.17;24.09;101077.21;109324;1252;73668;-70
2023/05/05 09:05:09;;;;;;;8.20;1.60;;;;;;;22.48;23.86;101081.39;109391;1252;57871;-71
2023/05/05 09:07:56;;;;;;;5.80;1.40;;;;;;;22.76;23.47;101079.06;109461;1253;57715;-68
2023/05/05 09:10:44;;;;;;;5.60;1.50;;;;;;;23.06;22.97;101079.47;109118;1252;71443;-72
2023/05/05 09:13:31;;;;;;;10.50;5.10;;;;;;;23.43;22.76;101081.77;109256;1253;66897;-69
2023/05/05 09:16:18;;;;;;;9.00;2.60;;;;;;;23.13;22.26;101080.28;109237;1253;72468;-68
2023/05/05 09:19:04;;;;;;;8.80;1.50;;;;;;;23.31;22.26;101084.70;109451;1252;57824;-70
2023/05/05 09:21:51;;;;;;;6.10;1.60;;;;;;;23.38;22.23;101089.95;109540;1252;59100;-67
2023/05/05 09:24:53;;;;;;;8.10;1.70;;;;;;;23.17;22.47;101093.28;109426;1252;70938;-67
2023/05/05 09:27:47;;;;;;;7.20;1.50;;;;;;;22.85;22.04;101093.29;109520;1251;66580;-67
2023/05/05 09:30:34;;;;;;;7.10;1.60;;;;;;;22.43;22.45;101096.58;109377;1253;71617;-65
2023/05/05 09:33:30;;;;;;;6.00;1.50;;;;;;;22.26;23.11;101094.58;109590;1252;56795;-69
2023/05/05 09:36:17;;;;;;;6.20;1.40;;;;;;;21.88;23.39;101092.27;109403;1252;59454;-69
2023/05/05 09:39:05;;;;;;;6.80;1.90;;;;;;;21.12;24.25;101094.64;109321;1252;70936;-66
2023/05/05 09:41:54;;;;;;;7.20;1.70;;;;;;;21.23;23.77;101085.72;109490;1252;65453;-68
2023/05/05 09:44:43;;;;;;;6.20;1.70;;;;;;;21.05;24.24;101087.14;109390;1252;72557;-67
2023/05/05 09:47:36;;;;;;;5.80;1.40;;;;;;;20.75;24.82;101102.63;109346;1252;56751;-67
2023/05/05 09:50:23;;;;;;;6.10;1.40;;;;;;;20.85;24.09;101092.73;109419;1252;59207;-68
2023/05/05 09:53:11;;;;;;;5.80;1.50;;;;;;;21.12;24.12;101086.86;109363;1253;70776;-69
2023/05/05 09:56:00;;;;;;;6.40;1.70;;;;;;;21.32;23.93;101090.48;109446;1253;66978;-66
2023/05/05 09:58:46;;;;;;;6.00;1.50;;;;;;;21.59;23.26;101092.92;109229;1253;72557;-65
2023/05/05 10:01:33;;;;;;;6.60;1.60;;;;;;;21.94;23.70;101091.84;109246;1253;58036;-72
2023/05/05 10:04:28;;;;;;;5.80;1.30;;;;;;;22.38;23.14;101092.17;109417;1253;60080;-67
2023/05/05 10:07:23;;;;;;;10.30;1.60;;;;;;;22.50;22.53;101092.19;109308;1252;72130;-67
2023/05/05 10:10:16;;;;;;;5.20;1.30;;;;;;;22.20;22.61;101086.23;109419;1253;67761;-72
2023/05/05 10:13:03;;;;;;;18.80;1.80;;;;;;;22.19;22.08;101092.29;109257;1252;72553;-69
2023/05/05 10:15:53;;;;;;;6.40;1.30;;;;;;;22.34;21.83;101089.70;109388;1252;57808;-69
2023/05/05 10:18:45;;;;;;;6.40;1.40;;;;;;;21.82;22.24;101093.41;109407;1252;60336;-68
2023/05/05 10:21:38;;;;;;;8.10;1.60;;;;;;;21.33;22.57;101098.40;109431;1252;72280;-68
2023/05/05 10:24:49;;;;;;;6.60;1.60;;;;;;;20.54;23.41;101095.31;109417;1253;66609;-64
2023/05/05 10:27:52;;;;;;;5.40;1.30;;;;;;;19.93;24.06;101100.57;109439;1252;72656;-73
2023/05/05 10:30:43;;;;;;;6.20;1.50;;;;;;;20.07;24.51;101097.55;109302;1253;56961;-71
2023/05/05 10:34:05;;;;;;;6.80;1.60;;;;;;;20.34;24.56;101091.97;109470;1250;59486;-70
2023/05/05 10:36:55;;;;;;;8.00;1.40;;;;;;;20.18;23.93;101098.44;108988;1257;72363;-70
2023/05/05 10:39:44;;;;;;;6.10;1.60;;;;;;;20.10;24.33;101098.90;108939;1257;67754;-73
2023/05/05 10:42:31;;;;;;;7.70;1.70;;;;;;;19.78;24.27;101094.55;109083;1257;73750;-70
2023/05/05 10:45:18;;;;;;;5.00;1.30;;;;;;;19.70;24.85;101084.70;108848;1257;57818;-71
2023/05/05 10:48:17;;;;;;;5.60;1.40;;;;;;;19.75;24.52;101087.27;108981;1257;58926;-70
2023/05/05 10:51:25;;;;;;;8.10;1.60;;;;;;;20.17;24.07;101085.88;108935;1257;72361;-72
2023/05/05 10:55:01;;;;;;;7.10;1.70;;;;;;;20.47;23.86;101085.20;109098;1257;68805;-81
2023/05/05 10:57:52;;;;;;;8.30;1.70;;;;;;;20.65;23.61;101088.16;109171;1257;71386;-78
2023/05/05 11:00:40;;;;;;;8.70;2.00;;;;;;;21.02;23.45;101085.23;109025;1257;57206;-80
2023/05/05 11:03:28;;;;;;;5.10;1.50;;;;;;;21.49;22.91;101087.07;109099;1257;59598;-81
2023/05/05 11:06:19;;;;;;;6.50;1.60;;;;;;;21.71;22.66;101083.06;109052;1257;72739;-83
2023/05/05 11:09:27;;;;;;;6.40;1.70;;;;;;;21.79;22.52;101081.05;109043;1257;67309;-82
2023/05/05 11:12:16;;;;;;;4.80;1.40;;;;;;;21.38;22.45;101077.80;109293;1251;71584;-84
2023/05/05 11:15:30;;;;;;;6.10;1.50;;;;;;;20.47;23.44;101076.31;109401;1252;57865;-80
2023/05/05 11:18:43;;;;;;;6.60;1.30;;;;;;;20.08;23.75;101074.55;109604;1252;60078;-82
2023/05/05 11:21:59;;;;;;;6.40;1.50;;;;;;;19.41;24.21;101072.29;109255;1252;70944;-83
2023/05/05 11:24:46;;;;;;;5.40;1.50;;;;;;;19.02;25.00;101067.78;109443;1251;67902;-82
2023/05/05 11:28:30;;;;;;;8.90;1.60;;;;;;;18.78;25.16;101069.52;109487;1252;72692;-84
2023/05/05 11:31:18;;;;;;;7.20;2.00;;;;;;;18.19;25.77;101064.36;109057;1258;57070;-82
2023/05/05 11:34:27;;;;;;;7.00;1.70;;;;;;;17.71;25.96;101063.92;108816;1262;58884;-85
2023/05/05 11:40:43;;;;;;;7.70;1.70;;;;;;;17.04;27.18;101068.16;105128;1292;613097;-83
2023/05/05 11:43:36;;;;;;;9.20;2.00;;;;;;;16.79;28.23;101067.85;106250;1272;59218;-82
2023/05/05 11:46:23;;;;;;;11.90;2.00;;;;;;;16.17;28.67;101069.65;105766;1268;59250;-81
2023/05/05 11:49:25;;;;;;;7.00;1.70;;;;;;;15.65;29.09;101077.18;106038;1269;69302;-72
2023/05/05 11:52:13;;;;;;;5.80;1.90;;;;;;;15.07;30.25;101076.55;104643;1269;67774;-75
2023/05/05 11:55:00;;;;;;;7.90;1.90;;;;;;;14.37;30.39;101077.83;104689;1269;73182;-73
2023/05/05 11:57:48;;;;;;;5.90;1.80;;;;;;;13.41;31.68;101077.55;105325;1266;59414;-73
2023/05/05 12:00:36;;;;;;;6.60;1.70;;;;;;;12.75;33.19;101080.73;105103;1261;59997;-73
2023/05/05 12:03:23;;;;;;;5.70;1.60;;;;;;;12.47;33.79;101083.35;105287;1266;69331;-73
2023/05/05 12:06:10;;;;;;;6.70;1.70;;;;;;;12.08;34.24;101081.94;105286;1268;67597;-73
2023/05/05 12:08:56;;;;;;;7.90;2.10;;;;;;;11.85;34.75;101082.41;105158;1263;70590;-71
2023/05/05 12:11:57;;;;;;;4.90;1.60;;;;;;;11.65;35.08;101082.08;105297;1268;59319;-71
2023/05/05 12:14:52;;;;;;;5.90;1.50;;;;;;;11.54;36.04;101080.87;105182;1263;60380;-72
2023/05/05 12:17:43;;;;;;;7.40;1.90;;;;;;;11.53;36.19;101077.17;105302;1263;71384;-72
2023/05/05 12:20:32;;;;;;;5.70;1.60;;;;;;;11.56;36.22;101082.70;105456;1260;66454;-71
2023/05/05 12:23:19;;;;;;;4.70;1.30;;;;;;;11.42;36.48;101080.08;105785;1260;73971;-74
2023/05/05 12:26:06;;;;;;;6.10;1.50;;;;;;;11.08;36.53;101072.11;105893;1253;59296;-75
2023/05/05 12:28:55;;;;;;;7.70;1.90;;;;;;;11.04;36.65;101071.98;106812;1259;59170;-73
2023/05/05 12:31:42;;;;;;;6.20;1.80;;;;;;;10.89;36.41;101069.73;106886;1254;71197;-70
2023/05/05 12:34:31;;;;;;;6.10;1.70;;;;;;;10.65;36.57;101077.46;106437;1254;67788;-72
2023/05/05 12:37:19;;;;;;;5.60;1.60;;;;;;;10.27;37.33;101079.73;106102;1259;71240;-74
2023/05/05 12:40:26;;;;;;;6.60;1.60;;;;;;;10.11;37.99;101072.35;106103;1259;59156;-72
2023/05/05 12:43:32;;;;;;;6.00;1.50;;;;;;;9.97;38.54;101063.80;105799;1254;60153;-72
2023/05/05 12:46:19;;;;;;;6.30;1.50;;;;;;;9.87;38.99;101062.98;105940;1254;70200;-66
2023/05/05 12:49:08;;;;;;;6.70;2.10;;;;;;;9.64;39.52;101065.53;105797;1253;66046;-66
2023/05/05 12:51:56;;;;;;;7.40;2.80;;;;;;;9.56;39.98;101062.23;105675;1259;73534;-65
2023/05/05 12:54:58;;;;;;;6.40;1.60;;;;;;;9.63;39.46;101057.24;105541;1261;59226;-66
2023/05/05 12:58:00;;;;;;;7.30;1.80;;;;;;;9.69;39.02;101054.40;106155;1253;60151;-68
2023/05/05 13:01:07;;;;;;;5.60;1.80;;;;;;;9.72;39.25;101052.31;106020;1259;72423;-68
2023/05/05 13:04:08;;;;;;;7.00;1.80;;;;;;;9.68;39.49;101053.41;105821;1255;66421;-68
2023/05/05 13:07:16;;;;;;;5.40;2.00;;;;;;;9.77;39.85;101050.61;105851;1253;72630;-68
2023/05/05 13:10:09;;;;;;;7.10;1.50;;;;;;;9.52;39.65;101055.92;105771;1260;59310;-68
2023/05/05 13:12:57;;;;;;;6.20;1.50;;;;;;;9.34;39.66;101055.86;105915;1256;59661;-67
2023/05/05 13:15:43;;;;;;;5.40;1.40;;;;;;;9.02;40.54;101055.53;104846;1252;1003776;-69
2023/05/05 13:18:30;;;;;;;5.90;1.60;;;;;;;8.75;40.57;101055.22;105472;1252;67095;-68